Terminal Aerodrome Forecast
Issued by NWS

Home | Current Version | Previous Version | Text Only | Print | Product List | Glossary On
Versions: 1 2 3 4 5 6 7 8 9 10 11 12 13 14 15 16 17 18
000
FTUS46 KSGX 011736
TAFSNA
TAF
KSNA 011736Z 0118/0218 21004KT P6SM SCT030 SCT200
     FM012000 23010KT P6SM SCT025 SCT200
     FM020200 VRB04KT P6SM SCT025
     FM020500 VRB04KT P6SM BKN025
     FM021700 21005KT P6SM SCT030=

USA.gov is the U.S. government's official web portal to all federal, state and local government web resources and services.